Shreveport Regional Airport
KSHV : rendu visible

Aérodrome :











RETROUVEZ-NOUS SUR...

 
LOGIN :

S'inscrire | Disclaimer

   EN    FR    IT 

 









Légende :    VFR   VFR Marginal   IFR   IFR Intensif   IFR Très Intensif
Visi : 
Plafond : 
>= 8 km
>= 3000ft
5 à 8 km
1000 à 3000 ft
1500m à 5 km
500 à 1000 ft
800 à 1500m
200 à 500 ft
< 800m
< 200 ft
Symboles :   Orages  Brouillard  Fortes neiges  Fortes précipitations  Vent > 20 kt






- Altitude de l'aérodrome : 258 ft
- Code IATA : SHV


KSHV - Shreveport Regional

DERNIER METAR :
  • 260456Z 15008KT 10SM BKN060 OVC070 12/06 A3007 RMK AO2 RAB09E35 SLP180 P0000 T01170061

METARs EXPIRÉS :
  • 260356Z 16006KT 10SM OVC075 12/07 A3008 RMK AO2 RAB13E51 SLP185 P0000 T01170067
  • 260256Z 16005KT 10SM BKN075 OVC100 12/05 A3008 RMK AO2 SLP185 T01170050 51002

TAF KSHV
Valide du 26 à 03h jusqu'au 27 à 00h UTC


260318Z 2603/2624 16006KT P6SM VCSH BKN070 OVC100
FM260600 17005KT 6SM -SHRA BR OVC050
TEMPO 2606/2610 4SM -SHRA BR OVC025
FM261000 17005KT 6SM -SHRA BR OVC015
TEMPO 2610/2614 3SM SHRA BR OVC007
FM261400 15005KT P6SM VCSH OVC005



MET'MAP, la Météo Aéronautique d'un coup d'oeil ! - Copyright ORBIFLY Décembre 2007 - Disclaimer

ORBIFLY MET'MAP TEAM :

Programmation & Développement : Alexandra Zaïnal
Sur une idée originale de : Baudouin d'Aumeries
Assistance à la programmation : Marc-Olivier Méhu
Soutien technique & logistique : Manuel Goepfert

Contact : metmap@orbifly.com




SOURCES & CREDITS :

   NOAA       Earth
Advisory